sensor_id;sensor_type;location;lat;lon;timestamp;temperature;humidity
32698;DHT22;19087;51.062;3.754;2022-11-03T00:01:14;13.30;99.90
32698;DHT22;19087;51.062;3.754;2022-11-03T00:03:40;13.30;99.90
32698;DHT22;19087;51.062;3.754;2022-11-03T00:06:05;13.30;99.90
32698;DHT22;19087;51.062;3.754;2022-11-03T00:11:01;13.30;99.90
32698;DHT22;19087;51.062;3.754;2022-11-03T00:13:26;13.20;99.90
32698;DHT22;19087;51.062;3.754;2022-11-03T00:15:52;13.20;99.90
32698;DHT22;19087;51.062;3.754;2022-11-03T00:18:17;13.10;99.90
32698;DHT22;19087;51.062;3.754;2022-11-03T00:20:43;13.20;99.90
32698;DHT22;19087;51.062;3.754;2022-11-03T00:23:08;13.10;99.90
32698;DHT22;19087;51.062;3.754;2022-11-03T00:25:34;13.10;99.90
32698;DHT22;19087;51.062;3.754;2022-11-03T00:27:59;13.00;99.90
32698;DHT22;19087;51.062;3.754;2022-11-03T00:30:25;13.00;99.90
32698;DHT22;19087;51.062;3.754;2022-11-03T00:32:51;13.00;99.90
32698;DHT22;19087;51.062;3.754;2022-11-03T00:35:16;12.90;99.90
32698;DHT22;19087;51.062;3.754;2022-11-03T00:37:44;13.00;99.90
32698;DHT22;19087;51.062;3.754;2022-11-03T00:40:09;12.90;99.90
32698;DHT22;19087;51.062;3.754;2022-11-03T00:42:36;12.90;99.90
32698;DHT22;19087;51.062;3.754;2022-11-03T00:45:03;12.90;99.90
32698;DHT22;19087;51.062;3.754;2022-11-03T00:47:30;12.90;99.90
32698;DHT22;19087;51.062;3.754;2022-11-03T00:49:57;12.90;99.90
32698;DHT22;19087;51.062;3.754;2022-11-03T00:52:22;12.90;99.90
32698;DHT22;19087;51.062;3.754;2022-11-03T00:54:48;12.90;99.90
32698;DHT22;19087;51.062;3.754;2022-11-03T00:57:14;12.90;99.90
32698;DHT22;19087;51.062;3.754;2022-11-03T00:59:39;12.90;99.90
32698;DHT22;19087;51.062;3.754;2022-11-03T01:02:05;12.90;99.90
32698;DHT22;19087;51.062;3.754;2022-11-03T01:04:30;12.90;99.90
32698;DHT22;19087;51.062;3.754;2022-11-03T01:07:14;12.90;99.90
32698;DHT22;19087;51.062;3.754;2022-11-03T01:09:40;12.90;99.90
32698;DHT22;19087;51.062;3.754;2022-11-03T01:12:07;12.90;99.90
32698;DHT22;19087;51.062;3.754;2022-11-03T01:14:45;12.90;99.90
32698;DHT22;19087;51.062;3.754;2022-11-03T01:17:12;12.90;99.90
32698;DHT22;19087;51.062;3.754;2022-11-03T01:19:38;12.90;99.90
32698;DHT22;19087;51.062;3.754;2022-11-03T01:22:03;13.00;99.90
32698;DHT22;19087;51.062;3.754;2022-11-03T01:24:29;12.90;99.90
32698;DHT22;19087;51.062;3.754;2022-11-03T01:26:55;12.90;99.90
32698;DHT22;19087;51.062;3.754;2022-11-03T01:29:21;13.00;99.90
32698;DHT22;19087;51.062;3.754;2022-11-03T01:31:46;13.00;99.90
32698;DHT22;19087;51.062;3.754;2022-11-03T01:34:13;13.00;99.90
32698;DHT22;19087;51.062;3.754;2022-11-03T01:36:40;13.00;99.90
32698;DHT22;19087;51.062;3.754;2022-11-03T01:39:07;13.00;99.90
32698;DHT22;19087;51.062;3.754;2022-11-03T01:41:33;13.00;99.90
32698;DHT22;19087;51.062;3.754;2022-11-03T01:49:07;13.00;99.90
32698;DHT22;19087;51.062;3.754;2022-11-03T01:51:34;13.00;99.90
32698;DHT22;19087;51.062;3.754;2022-11-03T01:54:02;13.00;99.90
32698;DHT22;19087;51.062;3.754;2022-11-03T01:56:29;13.00;99.90
32698;DHT22;19087;51.062;3.754;2022-11-03T01:58:57;13.00;99.90
32698;DHT22;19087;51.062;3.754;2022-11-03T02:01:24;13.00;99.90
32698;DHT22;19087;51.062;3.754;2022-11-03T02:03:53;13.00;99.90
32698;DHT22;19087;51.062;3.754;2022-11-03T02:06:21;13.00;99.90
32698;DHT22;19087;51.062;3.754;2022-11-03T02:08:51;13.00;99.90
32698;DHT22;19087;51.062;3.754;2022-11-03T02:11:18;13.00;99.90
32698;DHT22;19087;51.062;3.754;2022-11-03T02:14:02;12.90;99.90
32698;DHT22;19087;51.062;3.754;2022-11-03T02:16:29;13.00;99.90
32698;DHT22;19087;51.062;3.754;2022-11-03T02:18:55;13.00;99.90
32698;DHT22;19087;51.062;3.754;2022-11-03T02:21:41;12.90;99.90
32698;DHT22;19087;51.062;3.754;2022-11-03T02:24:22;13.00;99.90
32698;DHT22;19087;51.062;3.754;2022-11-03T02:26:49;13.00;99.90
32698;DHT22;19087;51.062;3.754;2022-11-03T02:29:18;13.00;99.90
32698;DHT22;19087;51.062;3.754;2022-11-03T02:31:45;13.00;99.90
32698;DHT22;19087;51.062;3.754;2022-11-03T02:39:13;13.00;99.90
32698;DHT22;19087;51.062;3.754;2022-11-03T02:41:39;13.00;99.90
32698;DHT22;19087;51.062;3.754;2022-11-03T02:44:06;13.00;99.90
32698;DHT22;19087;51.062;3.754;2022-11-03T02:46:33;13.00;99.90
32698;DHT22;19087;51.062;3.754;2022-11-03T02:48:59;13.00;99.90
32698;DHT22;19087;51.062;3.754;2022-11-03T02:51:24;13.10;99.90
32698;DHT22;19087;51.062;3.754;2022-11-03T02:54:13;13.00;99.90
32698;DHT22;19087;51.062;3.754;2022-11-03T02:56:38;13.00;99.90
32698;DHT22;19087;51.062;3.754;2022-11-03T02:59:08;13.10;99.90
32698;DHT22;19087;51.062;3.754;2022-11-03T03:01:39;13.10;99.90
32698;DHT22;19087;51.062;3.754;2022-11-03T03:04:29;13.10;99.90
32698;DHT22;19087;51.062;3.754;2022-11-03T03:06:57;13.10;99.90
32698;DHT22;19087;51.062;3.754;2022-11-03T03:09:26;13.10;99.90
32698;DHT22;19087;51.062;3.754;2022-11-03T03:11:54;13.00;99.90
32698;DHT22;19087;51.062;3.754;2022-11-03T03:14:33;13.00;99.90
32698;DHT22;19087;51.062;3.754;2022-11-03T03:19:58;13.00;99.90
32698;DHT22;19087;51.062;3.754;2022-11-03T03:25:53;13.00;99.90
32698;DHT22;19087;51.062;3.754;2022-11-03T03:28:01;13.00;99.90
32698;DHT22;19087;51.062;3.754;2022-11-03T03:30:28;13.10;99.90
32698;DHT22;19087;51.062;3.754;2022-11-03T03:32:57;13.10;99.90
32698;DHT22;19087;51.062;3.754;2022-11-03T03:35:24;13.10;99.90
32698;DHT22;19087;51.062;3.754;2022-11-03T03:37:52;13.10;99.90
32698;DHT22;19087;51.062;3.754;2022-11-03T03:40:25;13.10;99.90
32698;DHT22;19087;51.062;3.754;2022-11-03T03:42:53;13.10;99.90
32698;DHT22;19087;51.062;3.754;2022-11-03T03:45:25;13.10;99.90
32698;DHT22;19087;51.062;3.754;2022-11-03T03:47:51;13.10;99.90
32698;DHT22;19087;51.062;3.754;2022-11-03T03:50:16;13.20;99.90
32698;DHT22;19087;51.062;3.754;2022-11-03T03:52:43;13.10;99.90
32698;DHT22;19087;51.062;3.754;2022-11-03T03:55:16;13.10;99.90
32698;DHT22;19087;51.062;3.754;2022-11-03T03:57:42;13.10;99.90
32698;DHT22;19087;51.062;3.754;2022-11-03T04:00:08;13.10;99.90
32698;DHT22;19087;51.062;3.754;2022-11-03T04:02:35;13.10;99.90
32698;DHT22;19087;51.062;3.754;2022-11-03T04:05:01;13.10;99.90
32698;DHT22;19087;51.062;3.754;2022-11-03T04:07:27;13.10;99.90
32698;DHT22;19087;51.062;3.754;2022-11-03T04:10:11;13.10;99.90
32698;DHT22;19087;51.062;3.754;2022-11-03T04:12:39;13.10;99.90
32698;DHT22;19087;51.062;3.754;2022-11-03T04:15:23;13.10;99.90
32698;DHT22;19087;51.062;3.754;2022-11-03T04:18:07;13.10;99.90
32698;DHT22;19087;51.062;3.754;2022-11-03T04:20:51;13.10;99.90
32698;DHT22;19087;51.062;3.754;2022-11-03T04:23:35;13.00;99.90
32698;DHT22;19087;51.062;3.754;2022-11-03T04:26:01;13.10;99.90
32698;DHT22;19087;51.062;3.754;2022-11-03T04:28:31;13.10;99.90
32698;DHT22;19087;51.062;3.754;2022-11-03T04:30:57;13.10;99.90
32698;DHT22;19087;51.062;3.754;2022-11-03T04:33:24;13.10;99.90
32698;DHT22;19087;51.062;3.754;2022-11-03T04:35:50;13.10;99.90
32698;DHT22;19087;51.062;3.754;2022-11-03T04:38:19;13.20;99.90
32698;DHT22;19087;51.062;3.754;2022-11-03T04:40:51;13.20;99.90
32698;DHT22;19087;51.062;3.754;2022-11-03T04:43:18;13.20;99.90
32698;DHT22;19087;51.062;3.754;2022-11-03T04:45:46;13.20;99.90
32698;DHT22;19087;51.062;3.754;2022-11-03T04:48:14;13.20;99.90
32698;DHT22;19087;51.062;3.754;2022-11-03T04:50:40;13.20;99.90
32698;DHT22;19087;51.062;3.754;2022-11-03T04:53:12;13.20;99.90
32698;DHT22;19087;51.062;3.754;2022-11-03T04:55:38;13.10;99.90
32698;DHT22;19087;51.062;3.754;2022-11-03T04:58:18;13.20;99.90
32698;DHT22;19087;51.062;3.754;2022-11-03T05:00:44;13.20;99.90
32698;DHT22;19087;51.062;3.754;2022-11-03T05:03:11;13.10;99.90
32698;DHT22;19087;51.062;3.754;2022-11-03T05:05:39;13.10;99.90
32698;DHT22;19087;51.062;3.754;2022-11-03T05:08:06;13.10;99.90
32698;DHT22;19087;51.062;3.754;2022-11-03T05:10:32;13.20;99.90
32698;DHT22;19087;51.062;3.754;2022-11-03T05:13:00;13.10;99.90
32698;DHT22;19087;51.062;3.754;2022-11-03T05:17:55;13.10;99.90
32698;DHT22;19087;51.062;3.754;2022-11-03T05:20:31;13.00;99.90
32698;DHT22;19087;51.062;3.754;2022-11-03T05:22:59;13.00;99.90
32698;DHT22;19087;51.062;3.754;2022-11-03T05:25:35;13.00;99.90
32698;DHT22;19087;51.062;3.754;2022-11-03T05:28:02;13.10;99.90
32698;DHT22;19087;51.062;3.754;2022-11-03T05:30:28;13.00;99.90
32698;DHT22;19087;51.062;3.754;2022-11-03T05:32:54;13.10;99.90
32698;DHT22;19087;51.062;3.754;2022-11-03T05:35:20;13.00;99.90
32698;DHT22;19087;51.062;3.754;2022-11-03T05:37:48;13.10;99.90
32698;DHT22;19087;51.062;3.754;2022-11-03T05:40:24;13.00;99.90
32698;DHT22;19087;51.062;3.754;2022-11-03T05:42:52;13.10;99.90
32698;DHT22;19087;51.062;3.754;2022-11-03T05:45:23;13.00;99.90
32698;DHT22;19087;51.062;3.754;2022-11-03T05:47:55;13.10;99.90
32698;DHT22;19087;51.062;3.754;2022-11-03T05:52:50;13.10;99.90
32698;DHT22;19087;51.062;3.754;2022-11-03T05:55:21;13.00;99.90
32698;DHT22;19087;51.062;3.754;2022-11-03T05:57:48;13.00;99.90
32698;DHT22;19087;51.062;3.754;2022-11-03T06:00:27;13.00;99.90
32698;DHT22;19087;51.062;3.754;2022-11-03T06:02:53;13.00;99.90
32698;DHT22;19087;51.062;3.754;2022-11-03T06:05:20;13.00;99.90
32698;DHT22;19087;51.062;3.754;2022-11-03T06:07:46;13.10;99.90
32698;DHT22;19087;51.062;3.754;2022-11-03T06:10:35;13.10;99.90
32698;DHT22;19087;51.062;3.754;2022-11-03T06:12:59;13.10;99.90
32698;DHT22;19087;51.062;3.754;2022-11-03T06:15:26;13.10;99.90
32698;DHT22;19087;51.062;3.754;2022-11-03T06:17:53;13.10;99.90
32698;DHT22;19087;51.062;3.754;2022-11-03T06:20:19;13.10;99.90
32698;DHT22;19087;51.062;3.754;2022-11-03T06:22:46;13.20;99.90
32698;DHT22;19087;51.062;3.754;2022-11-03T06:27:54;13.20;99.90
32698;DHT22;19087;51.062;3.754;2022-11-03T06:32:50;13.30;99.90
32698;DHT22;19087;51.062;3.754;2022-11-03T06:35:32;13.30;99.90
32698;DHT22;19087;51.062;3.754;2022-11-03T06:38:02;13.30;99.90
32698;DHT22;19087;51.062;3.754;2022-11-03T06:40:29;13.40;99.90
32698;DHT22;19087;51.062;3.754;2022-11-03T06:42:56;13.30;99.90
32698;DHT22;19087;51.062;3.754;2022-11-03T06:45:23;13.40;99.90
32698;DHT22;19087;51.062;3.754;2022-11-03T06:47:49;13.30;99.90
32698;DHT22;19087;51.062;3.754;2022-11-03T06:50:31;13.40;99.90
32698;DHT22;19087;51.062;3.754;2022-11-03T06:52:57;13.50;99.90
32698;DHT22;19087;51.062;3.754;2022-11-03T06:55:33;13.40;99.90
32698;DHT22;19087;51.062;3.754;2022-11-03T07:00:27;13.50;99.90
32698;DHT22;19087;51.062;3.754;2022-11-03T07:05:32;13.40;99.90
32698;DHT22;19087;51.062;3.754;2022-11-03T07:08:20;13.40;99.90
32698;DHT22;19087;51.062;3.754;2022-11-03T07:10:44;13.40;99.90
32698;DHT22;19087;51.062;3.754;2022-11-03T07:13:13;13.50;99.90
32698;DHT22;19087;51.062;3.754;2022-11-03T07:15:40;13.40;99.90
32698;DHT22;19087;51.062;3.754;2022-11-03T07:18:17;13.40;99.90
32698;DHT22;19087;51.062;3.754;2022-11-03T07:20:44;13.40;99.90
32698;DHT22;19087;51.062;3.754;2022-11-03T07:23:11;13.40;99.90
32698;DHT22;19087;51.062;3.754;2022-11-03T07:25:37;13.40;99.90
32698;DHT22;19087;51.062;3.754;2022-11-03T07:28:03;13.50;99.90
32698;DHT22;19087;51.062;3.754;2022-11-03T07:30:29;13.40;99.90
32698;DHT22;19087;51.062;3.754;2022-11-03T07:33:01;13.40;99.90
32698;DHT22;19087;51.062;3.754;2022-11-03T07:35:36;13.40;99.90
32698;DHT22;19087;51.062;3.754;2022-11-03T07:38:15;13.40;99.90
32698;DHT22;19087;51.062;3.754;2022-11-03T07:40:43;13.40;99.90
32698;DHT22;19087;51.062;3.754;2022-11-03T07:50:58;13.50;99.90
32698;DHT22;19087;51.062;3.754;2022-11-03T07:53:39;13.50;99.90
32698;DHT22;19087;51.062;3.754;2022-11-03T07:56:12;13.50;99.90
32698;DHT22;19087;51.062;3.754;2022-11-03T07:58:39;13.60;99.90
32698;DHT22;19087;51.062;3.754;2022-11-03T08:01:18;13.60;99.90
32698;DHT22;19087;51.062;3.754;2022-11-03T08:03:46;13.50;99.90
32698;DHT22;19087;51.062;3.754;2022-11-03T08:06:12;13.50;99.90
32698;DHT22;19087;51.062;3.754;2022-11-03T08:08:37;13.50;99.90
32698;DHT22;19087;51.062;3.754;2022-11-03T08:11:04;13.50;99.90
32698;DHT22;19087;51.062;3.754;2022-11-03T08:13:30;13.50;99.90
32698;DHT22;19087;51.062;3.754;2022-11-03T08:15:56;13.60;99.90
32698;DHT22;19087;51.062;3.754;2022-11-03T08:18:22;13.60;99.90
32698;DHT22;19087;51.062;3.754;2022-11-03T08:20:50;13.60;99.90
32698;DHT22;19087;51.062;3.754;2022-11-03T08:23:15;13.60;99.90
32698;DHT22;19087;51.062;3.754;2022-11-03T08:25:41;13.60;99.90
32698;DHT22;19087;51.062;3.754;2022-11-03T08:28:07;13.60;99.90
32698;DHT22;19087;51.062;3.754;2022-11-03T08:30:33;13.60;99.90
32698;DHT22;19087;51.062;3.754;2022-11-03T08:32:59;13.60;99.90
32698;DHT22;19087;51.062;3.754;2022-11-03T08:35:25;13.70;99.90
32698;DHT22;19087;51.062;3.754;2022-11-03T08:37:51;13.70;99.90
32698;DHT22;19087;51.062;3.754;2022-11-03T08:40:16;13.70;99.90
32698;DHT22;19087;51.062;3.754;2022-11-03T08:42:43;13.70;99.90
32698;DHT22;19087;51.062;3.754;2022-11-03T08:45:09;13.70;99.90
32698;DHT22;19087;51.062;3.754;2022-11-03T08:47:36;13.70;99.90
32698;DHT22;19087;51.062;3.754;2022-11-03T08:50:03;13.80;99.90
32698;DHT22;19087;51.062;3.754;2022-11-03T08:52:30;13.80;99.90
32698;DHT22;19087;51.062;3.754;2022-11-03T08:54:56;13.70;99.90
32698;DHT22;19087;51.062;3.754;2022-11-03T08:57:22;13.60;99.90
32698;DHT22;19087;51.062;3.754;2022-11-03T08:59:47;13.60;99.90
32698;DHT22;19087;51.062;3.754;2022-11-03T09:02:13;13.60;99.90
32698;DHT22;19087;51.062;3.754;2022-11-03T09:04:39;13.70;99.90
32698;DHT22;19087;51.062;3.754;2022-11-03T09:07:05;13.60;99.90
32698;DHT22;19087;51.062;3.754;2022-11-03T09:09:31;13.60;99.90
32698;DHT22;19087;51.062;3.754;2022-11-03T09:11:57;13.60;99.90
32698;DHT22;19087;51.062;3.754;2022-11-03T09:14:22;13.60;99.90
32698;DHT22;19087;51.062;3.754;2022-11-03T09:16:48;13.70;99.90
32698;DHT22;19087;51.062;3.754;2022-11-03T09:19:13;13.70;99.90
32698;DHT22;19087;51.062;3.754;2022-11-03T09:21:39;13.80;99.90
32698;DHT22;19087;51.062;3.754;2022-11-03T09:24:04;13.90;99.90
32698;DHT22;19087;51.062;3.754;2022-11-03T09:26:30;14.00;99.90
32698;DHT22;19087;51.062;3.754;2022-11-03T09:28:56;14.00;99.90
32698;DHT22;19087;51.062;3.754;2022-11-03T09:31:21;14.10;99.90
32698;DHT22;19087;51.062;3.754;2022-11-03T09:33:50;14.30;99.90
32698;DHT22;19087;51.062;3.754;2022-11-03T09:36:15;14.20;99.90
32698;DHT22;19087;51.062;3.754;2022-11-03T09:38:41;14.10;99.90
32698;DHT22;19087;51.062;3.754;2022-11-03T09:41:08;14.20;99.90
32698;DHT22;19087;51.062;3.754;2022-11-03T09:43:33;14.10;99.90
32698;DHT22;19087;51.062;3.754;2022-11-03T09:46:00;14.20;99.90
32698;DHT22;19087;51.062;3.754;2022-11-03T09:48:26;14.30;99.90
32698;DHT22;19087;51.062;3.754;2022-11-03T09:50:52;14.40;99.90
32698;DHT22;19087;51.062;3.754;2022-11-03T09:53:19;14.40;99.90
32698;DHT22;19087;51.062;3.754;2022-11-03T09:55:45;14.40;99.90
32698;DHT22;19087;51.062;3.754;2022-11-03T09:58:14;14.50;99.90
32698;DHT22;19087;51.062;3.754;2022-11-03T10:00:40;14.50;99.90
32698;DHT22;19087;51.062;3.754;2022-11-03T10:03:13;14.50;99.90
32698;DHT22;19087;51.062;3.754;2022-11-03T10:05:39;14.60;99.90
32698;DHT22;19087;51.062;3.754;2022-11-03T10:08:07;14.60;99.90
32698;DHT22;19087;51.062;3.754;2022-11-03T10:10:37;14.70;99.90
32698;DHT22;19087;51.062;3.754;2022-11-03T10:13:04;14.70;99.90
32698;DHT22;19087;51.062;3.754;2022-11-03T10:15:34;14.80;99.90
32698;DHT22;19087;51.062;3.754;2022-11-03T10:18:01;14.90;99.90
32698;DHT22;19087;51.062;3.754;2022-11-03T10:20:27;14.90;99.90
32698;DHT22;19087;51.062;3.754;2022-11-03T10:22:53;15.10;99.90
32698;DHT22;19087;51.062;3.754;2022-11-03T10:27:51;15.40;99.90
32698;DHT22;19087;51.062;3.754;2022-11-03T10:30:16;15.60;99.90
32698;DHT22;19087;51.062;3.754;2022-11-03T10:32:42;15.70;99.90
32698;DHT22;19087;51.062;3.754;2022-11-03T10:37:51;15.70;99.90
32698;DHT22;19087;51.062;3.754;2022-11-03T10:43:13;15.80;99.90
32698;DHT22;19087;51.062;3.754;2022-11-03T10:45:38;15.60;99.90
32698;DHT22;19087;51.062;3.754;2022-11-03T10:48:04;15.50;99.90
32698;DHT22;19087;51.062;3.754;2022-11-03T10:50:31;15.50;99.90
32698;DHT22;19087;51.062;3.754;2022-11-03T10:52:57;15.50;99.90
32698;DHT22;19087;51.062;3.754;2022-11-03T10:55:23;15.60;99.90
32698;DHT22;19087;51.062;3.754;2022-11-03T10:57:49;15.70;99.90
32698;DHT22;19087;51.062;3.754;2022-11-03T11:00:15;15.80;99.90
32698;DHT22;19087;51.062;3.754;2022-11-03T11:02:41;15.80;99.90
32698;DHT22;19087;51.062;3.754;2022-11-03T11:05:11;15.80;99.90
32698;DHT22;19087;51.062;3.754;2022-11-03T11:07:38;15.80;99.90
32698;DHT22;19087;51.062;3.754;2022-11-03T11:10:23;15.60;99.90
32698;DHT22;19087;51.062;3.754;2022-11-03T11:15:38;15.70;99.90
32698;DHT22;19087;51.062;3.754;2022-11-03T11:18:04;15.80;99.90
32698;DHT22;19087;51.062;3.754;2022-11-03T11:20:31;16.00;99.90
32698;DHT22;19087;51.062;3.754;2022-11-03T11:28:26;16.00;99.90
32698;DHT22;19087;51.062;3.754;2022-11-03T11:33:23;16.00;99.90
32698;DHT22;19087;51.062;3.754;2022-11-03T11:40:59;16.00;99.90
32698;DHT22;19087;51.062;3.754;2022-11-03T11:43:25;16.00;99.90
32698;DHT22;19087;51.062;3.754;2022-11-03T11:48:35;16.10;99.90
32698;DHT22;19087;51.062;3.754;2022-11-03T11:51:01;16.00;99.90
32698;DHT22;19087;51.062;3.754;2022-11-03T11:53:30;16.10;99.90
32698;DHT22;19087;51.062;3.754;2022-11-03T11:55:58;15.90;99.90
32698;DHT22;19087;51.062;3.754;2022-11-03T12:00:54;15.90;99.90
32698;DHT22;19087;51.062;3.754;2022-11-03T12:03:41;16.00;99.90
32698;DHT22;19087;51.062;3.754;2022-11-03T12:06:05;15.80;99.90
32698;DHT22;19087;51.062;3.754;2022-11-03T12:08:31;15.80;99.90
32698;DHT22;19087;51.062;3.754;2022-11-03T12:11:01;15.90;99.90
32698;DHT22;19087;51.062;3.754;2022-11-03T12:13:59;16.00;99.90
32698;DHT22;19087;51.062;3.754;2022-11-03T12:16:31;16.10;99.90
32698;DHT22;19087;51.062;3.754;2022-11-03T12:18:57;16.20;99.90
32698;DHT22;19087;51.062;3.754;2022-11-03T12:21:46;16.20;99.90
32698;DHT22;19087;51.062;3.754;2022-11-03T12:26:55;16.60;99.90
32698;DHT22;19087;51.062;3.754;2022-11-03T12:29:21;16.70;99.90
32698;DHT22;19087;51.062;3.754;2022-11-03T12:31:47;16.90;99.90
32698;DHT22;19087;51.062;3.754;2022-11-03T12:34:13;17.00;99.90
32698;DHT22;19087;51.062;3.754;2022-11-03T12:36:38;17.10;99.90
32698;DHT22;19087;51.062;3.754;2022-11-03T12:39:04;17.00;99.90
32698;DHT22;19087;51.062;3.754;2022-11-03T12:41:29;16.90;99.90
32698;DHT22;19087;51.062;3.754;2022-11-03T12:43:55;16.90;99.90
32698;DHT22;19087;51.062;3.754;2022-11-03T12:46:22;16.90;99.90
32698;DHT22;19087;51.062;3.754;2022-11-03T12:48:47;16.90;99.90
32698;DHT22;19087;51.062;3.754;2022-11-03T12:51:14;16.90;99.90
32698;DHT22;19087;51.062;3.754;2022-11-03T12:53:40;16.70;99.90
32698;DHT22;19087;51.062;3.754;2022-11-03T12:56:06;16.60;99.90
32698;DHT22;19087;51.062;3.754;2022-11-03T12:58:32;16.60;99.90
32698;DHT22;19087;51.062;3.754;2022-11-03T13:00:58;16.50;99.90
32698;DHT22;19087;51.062;3.754;2022-11-03T13:03:24;16.50;99.90
32698;DHT22;19087;51.062;3.754;2022-11-03T13:05:50;16.50;99.90
32698;DHT22;19087;51.062;3.754;2022-11-03T13:08:16;16.50;99.90
32698;DHT22;19087;51.062;3.754;2022-11-03T13:10:41;16.40;99.90
32698;DHT22;19087;51.062;3.754;2022-11-03T13:13:07;16.30;99.90
32698;DHT22;19087;51.062;3.754;2022-11-03T13:15:32;16.10;99.90
32698;DHT22;19087;51.062;3.754;2022-11-03T13:17:59;16.10;99.90
32698;DHT22;19087;51.062;3.754;2022-11-03T13:20:25;16.10;99.90
32698;DHT22;19087;51.062;3.754;2022-11-03T13:22:50;16.20;99.90
32698;DHT22;19087;51.062;3.754;2022-11-03T13:25:16;16.20;99.90
32698;DHT22;19087;51.062;3.754;2022-11-03T13:27:43;16.10;99.90
32698;DHT22;19087;51.062;3.754;2022-11-03T13:30:08;16.00;99.90
32698;DHT22;19087;51.062;3.754;2022-11-03T13:32:35;16.00;99.90
32698;DHT22;19087;51.062;3.754;2022-11-03T13:35:00;16.10;99.90
32698;DHT22;19087;51.062;3.754;2022-11-03T13:37:27;16.10;99.90
32698;DHT22;19087;51.062;3.754;2022-11-03T13:39:52;16.20;99.90
32698;DHT22;19087;51.062;3.754;2022-11-03T13:42:18;16.40;99.90
32698;DHT22;19087;51.062;3.754;2022-11-03T13:44:44;16.40;99.90
32698;DHT22;19087;51.062;3.754;2022-11-03T13:47:09;16.40;99.90
32698;DHT22;19087;51.062;3.754;2022-11-03T13:49:35;16.20;99.90
32698;DHT22;19087;51.062;3.754;2022-11-03T13:52:00;16.20;99.90
32698;DHT22;19087;51.062;3.754;2022-11-03T13:54:26;16.10;99.90
32698;DHT22;19087;51.062;3.754;2022-11-03T13:56:51;16.10;99.90
32698;DHT22;19087;51.062;3.754;2022-11-03T13:59:17;16.00;99.90
32698;DHT22;19087;51.062;3.754;2022-11-03T14:01:42;15.80;99.90
32698;DHT22;19087;51.062;3.754;2022-11-03T14:04:08;15.60;99.90
32698;DHT22;19087;51.062;3.754;2022-11-03T14:06:33;15.60;99.90
32698;DHT22;19087;51.062;3.754;2022-11-03T14:09:02;15.50;99.90
32698;DHT22;19087;51.062;3.754;2022-11-03T14:11:27;15.40;99.90
32698;DHT22;19087;51.062;3.754;2022-11-03T14:14:11;15.30;99.90
32698;DHT22;19087;51.062;3.754;2022-11-03T14:16:36;15.30;99.90
32698;DHT22;19087;51.062;3.754;2022-11-03T14:19:02;15.40;99.90
32698;DHT22;19087;51.062;3.754;2022-11-03T14:21:27;15.30;99.90
32698;DHT22;19087;51.062;3.754;2022-11-03T14:23:53;15.40;99.90
32698;DHT22;19087;51.062;3.754;2022-11-03T14:26:18;15.40;99.90
32698;DHT22;19087;51.062;3.754;2022-11-03T14:28:44;15.40;99.90
32698;DHT22;19087;51.062;3.754;2022-11-03T14:31:10;15.30;99.90
32698;DHT22;19087;51.062;3.754;2022-11-03T14:33:38;15.30;99.90
32698;DHT22;19087;51.062;3.754;2022-11-03T14:36:03;15.20;99.90
32698;DHT22;19087;51.062;3.754;2022-11-03T14:38:29;15.00;99.90
32698;DHT22;19087;51.062;3.754;2022-11-03T14:40:54;14.90;99.90
32698;DHT22;19087;51.062;3.754;2022-11-03T14:43:38;14.90;99.90
32698;DHT22;19087;51.062;3.754;2022-11-03T14:46:04;14.90;99.90
32698;DHT22;19087;51.062;3.754;2022-11-03T14:48:30;14.70;99.90
32698;DHT22;19087;51.062;3.754;2022-11-03T14:50:56;14.60;99.90
32698;DHT22;19087;51.062;3.754;2022-11-03T14:53:21;14.50;99.90
32698;DHT22;19087;51.062;3.754;2022-11-03T14:55:48;14.50;99.90
32698;DHT22;19087;51.062;3.754;2022-11-03T14:58:13;14.40;99.90
32698;DHT22;19087;51.062;3.754;2022-11-03T15:00:39;14.30;99.90
32698;DHT22;19087;51.062;3.754;2022-11-03T15:03:05;14.20;99.90
32698;DHT22;19087;51.062;3.754;2022-11-03T15:05:30;14.20;99.90
32698;DHT22;19087;51.062;3.754;2022-11-03T15:08:13;14.10;99.90
32698;DHT22;19087;51.062;3.754;2022-11-03T15:10:38;14.10;99.90
32698;DHT22;19087;51.062;3.754;2022-11-03T15:13:04;14.00;99.90
32698;DHT22;19087;51.062;3.754;2022-11-03T15:15:29;13.80;99.90
32698;DHT22;19087;51.062;3.754;2022-11-03T15:17:55;13.80;99.90
32698;DHT22;19087;51.062;3.754;2022-11-03T15:20:23;13.80;99.90
32698;DHT22;19087;51.062;3.754;2022-11-03T15:22:49;13.80;99.90
32698;DHT22;19087;51.062;3.754;2022-11-03T15:25:14;13.80;99.90
32698;DHT22;19087;51.062;3.754;2022-11-03T15:27:43;13.70;99.90
32698;DHT22;19087;51.062;3.754;2022-11-03T15:30:09;13.60;99.90
32698;DHT22;19087;51.062;3.754;2022-11-03T15:32:35;13.60;99.90
32698;DHT22;19087;51.062;3.754;2022-11-03T15:35:01;13.50;99.90
32698;DHT22;19087;51.062;3.754;2022-11-03T15:37:28;13.40;99.90
32698;DHT22;19087;51.062;3.754;2022-11-03T15:39:53;13.40;99.90
32698;DHT22;19087;51.062;3.754;2022-11-03T15:42:19;13.30;99.90
32698;DHT22;19087;51.062;3.754;2022-11-03T15:44:45;13.30;99.90
32698;DHT22;19087;51.062;3.754;2022-11-03T15:47:10;13.20;99.90
32698;DHT22;19087;51.062;3.754;2022-11-03T15:49:36;13.10;99.90
32698;DHT22;19087;51.062;3.754;2022-11-03T15:52:01;13.10;99.90
32698;DHT22;19087;51.062;3.754;2022-11-03T15:54:27;13.10;99.90
32698;DHT22;19087;51.062;3.754;2022-11-03T15:56:52;13.10;99.90
32698;DHT22;19087;51.062;3.754;2022-11-03T15:59:19;13.10;99.90
32698;DHT22;19087;51.062;3.754;2022-11-03T16:01:47;13.10;99.90
32698;DHT22;19087;51.062;3.754;2022-11-03T16:04:13;13.10;99.90
32698;DHT22;19087;51.062;3.754;2022-11-03T16:06:40;13.10;99.90
32698;DHT22;19087;51.062;3.754;2022-11-03T16:09:06;13.00;99.90
32698;DHT22;19087;51.062;3.754;2022-11-03T16:11:31;12.90;99.90
32698;DHT22;19087;51.062;3.754;2022-11-03T16:13:57;12.90;99.90
32698;DHT22;19087;51.062;3.754;2022-11-03T16:16:24;12.90;99.90
32698;DHT22;19087;51.062;3.754;2022-11-03T16:18:49;12.90;99.90
32698;DHT22;19087;51.062;3.754;2022-11-03T16:21:15;12.80;99.90
32698;DHT22;19087;51.062;3.754;2022-11-03T16:23:41;12.80;99.90
32698;DHT22;19087;51.062;3.754;2022-11-03T16:26:06;12.90;99.90
32698;DHT22;19087;51.062;3.754;2022-11-03T16:28:33;12.90;99.90
32698;DHT22;19087;51.062;3.754;2022-11-03T16:30:59;12.90;99.90
32698;DHT22;19087;51.062;3.754;2022-11-03T16:33:24;12.90;99.90
32698;DHT22;19087;51.062;3.754;2022-11-03T16:35:52;12.90;99.90
32698;DHT22;19087;51.062;3.754;2022-11-03T16:38:18;12.80;99.90
32698;DHT22;19087;51.062;3.754;2022-11-03T16:40:43;12.90;99.90
32698;DHT22;19087;51.062;3.754;2022-11-03T16:43:10;12.90;99.90
32698;DHT22;19087;51.062;3.754;2022-11-03T16:45:36;12.90;99.90
32698;DHT22;19087;51.062;3.754;2022-11-03T16:48:03;12.90;99.90